Time;durP1;ratioP1;P1;durP2;ratioP2;P2;SDS_P1;SDS_P2;PMS_P1;PMS_P2;Temp;Humidity;BMP_temperature;BMP_pressure;BME280_temperature;BME280_humidity;BME280_pressure;Samples;Min_cycle;Max_cycle;Signal;HPM_P1;HPM_P2
2021/04/11 00:01:09;;;;;;;4.05;3.03;;;11.00;99.90;;;;;;4172156;28;20045;-67
2021/04/11 00:03:17;;;;;;;5.38;3.38;;;11.10;99.90;;;;;;4160080;28;20427;-67
2021/04/11 00:05:20;;;;;;;5.90;3.05;;;11.00;99.90;;;;;;4154694;28;20037;-67
2021/04/11 00:07:21;;;;;;;7.43;3.45;;;11.10;99.90;;;;;;4163122;28;20393;-67
2021/04/11 00:09:21;;;;;;;4.72;3.25;;;11.10;99.90;;;;;;4161328;28;20033;-67
2021/04/11 00:11:22;;;;;;;4.75;3.42;;;11.00;99.90;;;;;;4167186;28;20037;-67
2021/04/11 00:13:30;;;;;;;8.15;3.90;;;11.10;99.90;;;;;;4159974;28;20041;-67
2021/04/11 00:15:31;;;;;;;5.40;3.25;;;11.10;99.90;;;;;;4173692;28;20040;-67
2021/04/11 00:17:32;;;;;;;4.55;3.45;;;11.00;99.90;;;;;;4159885;28;20068;-67
2021/04/11 00:19:33;;;;;;;4.63;3.90;;;11.10;99.90;;;;;;4165257;28;20478;-67
2021/04/11 00:21:33;;;;;;;8.05;4.72;;;11.10;99.90;;;;;;4166798;28;20594;-67
2021/04/11 00:23:34;;;;;;;17.52;12.60;;;11.00;99.90;;;;;;4166768;28;20057;-67
2021/04/11 00:25:37;;;;;;;21.00;15.98;;;11.00;99.90;;;;;;4169314;28;20123;-67
2021/04/11 00:27:38;;;;;;;18.90;14.50;;;10.90;99.90;;;;;;4142387;28;20045;-67
2021/04/11 00:29:38;;;;;;;23.27;18.17;;;10.90;99.90;;;;;;4162342;28;20033;-67
2021/04/11 00:31:39;;;;;;;24.80;18.33;;;10.80;99.90;;;;;;4167986;28;20038;-67
2021/04/11 00:33:43;;;;;;;24.70;18.50;;;10.70;99.90;;;;;;4178571;28;20127;-67
2021/04/11 00:35:44;;;;;;;28.48;20.20;;;10.70;99.90;;;;;;4167848;28;20036;-67
2021/04/11 00:37:45;;;;;;;31.67;21.85;;;10.60;99.90;;;;;;4159463;28;20033;-67
2021/04/11 00:39:46;;;;;;;30.67;20.95;;;10.50;99.90;;;;;;4179741;28;20064;-67
2021/04/11 00:41:52;;;;;;;27.42;18.98;;;10.30;99.90;;;;;;4161928;28;20386;-67
2021/04/11 00:43:53;;;;;;;27.23;20.45;;;10.30;99.90;;;;;;4158329;28;20505;-67
2021/04/11 00:45:56;;;;;;;27.27;19.25;;;10.20;99.90;;;;;;4171364;28;20036;-67
2021/04/11 00:47:57;;;;;;;25.17;18.63;;;10.10;99.90;;;;;;4177550;28;20059;-67
2021/04/11 00:50:07;;;;;;;28.73;17.85;;;9.90;99.90;;;;;;4160305;28;20034;-67
2021/04/11 00:52:13;;;;;;;23.42;16.25;;;9.80;99.90;;;;;;4172609;28;20047;-67
2021/04/11 00:54:14;;;;;;;21.85;15.60;;;9.70;99.90;;;;;;4179999;28;20037;-67
2021/04/11 00:56:17;;;;;;;18.90;13.88;;;9.60;99.90;;;;;;4166867;28;20662;-67
2021/04/11 00:58:18;;;;;;;;;;;9.50;99.90;;;;;;4160103;28;20041;-67
2021/04/11 01:00:26;;;;;;;15.27;11.43;;;9.40;99.90;;;;;;4166420;28;19921;-67
2021/04/11 01:02:27;;;;;;;17.75;12.25;;;9.30;99.90;;;;;;4167448;28;20045;-67
2021/04/11 01:04:27;;;;;;;14.38;11.23;;;9.20;99.90;;;;;;4160743;28;20041;-67
2021/04/11 01:06:35;;;;;;;14.77;10.88;;;9.20;99.90;;;;;;4166363;28;20060;-67
2021/04/11 01:08:38;;;;;;;11.55;9.20;;;9.00;99.90;;;;;;4165753;28;20504;-67
2021/04/11 01:10:44;;;;;;;11.55;8.82;;;8.90;99.90;;;;;;4167620;28;20042;-67
2021/04/11 01:12:45;;;;;;;11.27;9.25;;;8.80;99.90;;;;;;4165798;28;20041;-67
2021/04/11 01:14:47;;;;;;;11.70;8.98;;;8.80;99.90;;;;;;4163780;28;20090;-68
2021/04/11 01:16:48;;;;;;;10.05;7.93;;;8.70;99.90;;;;;;4168093;28;20579;-67
2021/04/11 01:18:49;;;;;;;8.57;7.30;;;8.60;99.90;;;;;;4190400;28;20116;-67
2021/04/11 01:20:50;;;;;;;8.65;6.50;;;8.50;99.90;;;;;;4166563;28;20090;-67
2021/04/11 01:23:08;;;;;;;6.57;5.55;;;8.40;99.90;;;;;;4168682;28;20073;-67
2021/04/11 01:25:18;;;;;;;7.70;5.30;;;8.30;99.90;;;;;;4158798;28;20394;-67
2021/04/11 01:27:24;;;;;;;6.47;5.50;;;8.20;99.90;;;;;;4163826;28;20042;-67
2021/04/11 01:29:25;;;;;;;6.63;4.93;;;8.10;99.90;;;;;;4161148;28;20041;-67
2021/04/11 01:31:29;;;;;;;4.80;4.22;;;8.00;99.90;;;;;;4167552;28;20367;-67
2021/04/11 01:33:32;;;;;;;4.90;4.30;;;8.00;99.90;;;;;;4175296;28;20385;-67
2021/04/11 01:35:32;;;;;;;4.53;4.03;;;8.00;99.90;;;;;;4164310;28;20045;-67
2021/04/11 01:37:33;;;;;;;4.55;4.00;;;8.00;99.90;;;;;;4175602;28;20033;-67
2021/04/11 01:39:37;;;;;;;4.68;3.90;;;7.90;99.90;;;;;;4170109;28;20057;-67
2021/04/11 01:41:41;;;;;;;4.15;3.53;;;7.90;99.90;;;;;;4167395;28;20457;-67
2021/04/11 01:43:43;;;;;;;4.90;3.92;;;7.90;99.90;;;;;;4158811;28;20044;-67
2021/04/11 01:45:45;;;;;;;4.47;3.72;;;7.90;99.90;;;;;;4163603;28;20041;-67
2021/04/11 01:47:45;;;;;;;4.35;3.92;;;7.90;99.90;;;;;;4162051;28;20042;-67
2021/04/11 01:49:46;;;;;;;3.88;3.28;;;7.90;99.90;;;;;;4158639;28;20111;-67
2021/04/11 01:51:53;;;;;;;4.50;3.70;;;7.90;99.90;;;;;;4179120;28;20049;-67
2021/04/11 01:53:54;;;;;;;3.90;3.30;;;7.90;99.90;;;;;;4159123;28;20053;-67
2021/04/11 01:55:55;;;;;;;6.18;4.47;;;7.80;99.90;;;;;;4161860;28;20166;-67
2021/04/11 01:57:57;;;;;;;4.57;4.15;;;7.80;99.90;;;;;;4166910;28;20041;-67
2021/04/11 02:00:00;;;;;;;5.13;4.33;;;7.70;99.90;;;;;;4158667;28;20041;-67
2021/04/11 02:02:01;;;;;;;;;;;7.70;99.90;;;;;;4158974;28;20046;-67
2021/04/11 02:04:04;;;;;;;5.70;4.90;;;7.70;99.90;;;;;;4159094;28;19920;-67
2021/04/11 02:06:12;;;;;;;6.30;5.13;;;7.70;99.90;;;;;;4166373;28;20116;-67
2021/04/11 02:08:20;;;;;;;8.77;5.80;;;7.60;99.90;;;;;;4161208;28;20045;-67
2021/04/11 02:10:28;;;;;;;6.72;5.72;;;7.60;99.90;;;;;;4158982;28;20041;-67
2021/04/11 02:12:29;;;;;;;7.07;5.90;;;7.50;99.90;;;;;;4166533;28;20071;-67
2021/04/11 02:14:30;;;;;;;7.72;5.38;;;7.40;99.90;;;;;;4157939;28;20149;-67
2021/04/11 02:16:33;;;;;;;6.57;5.20;;;7.40;99.90;;;;;;4161536;28;20045;-67
2021/04/11 02:18:35;;;;;;;6.80;5.75;;;7.30;99.90;;;;;;4167494;28;20048;-67
2021/04/11 02:20:36;;;;;;;7.93;5.87;;;7.30;99.90;;;;;;4176374;28;20041;-67
2021/04/11 02:22:39;;;;;;;7.68;5.82;;;7.20;99.90;;;;;;4184858;28;20756;-67
2021/04/11 02:24:41;;;;;;;8.13;5.57;;;7.10;99.90;;;;;;4158559;28;20036;-67
2021/04/11 02:26:43;;;;;;;7.63;4.90;;;7.00;99.90;;;;;;4162697;28;20044;-67
2021/04/11 02:28:43;;;;;;;6.20;5.10;;;6.90;99.90;;;;;;4158391;28;20072;-67
2021/04/11 02:31:18;;;;;;;6.28;4.90;;;6.90;99.90;;;;;;4183905;28;20510;-67
2021/04/11 02:33:20;;;;;;;7.82;5.10;;;6.90;99.90;;;;;;4172133;28;20107;-67
2021/04/11 02:35:25;;;;;;;6.78;5.35;;;6.80;99.90;;;;;;4152998;28;20041;-67
2021/04/11 02:37:30;;;;;;;5.80;4.93;;;6.80;99.90;;;;;;4157467;28;20033;-67
2021/04/11 02:39:38;;;;;;;6.28;5.05;;;6.80;99.90;;;;;;4138434;28;20050;-67
2021/04/11 02:41:40;;;;;;;5.78;4.68;;;6.70;99.90;;;;;;4157447;28;20037;-67
2021/04/11 02:43:41;;;;;;;8.30;4.43;;;6.70;99.90;;;;;;4157904;28;20039;-67
2021/04/11 02:45:44;;;;;;;5.70;4.20;;;6.70;99.90;;;;;;4157389;28;20071;-67
2021/04/11 02:47:45;;;;;;;4.25;3.17;;;6.60;99.90;;;;;;4182547;28;20059;-67
2021/04/11 02:49:49;;;;;;;4.70;3.95;;;6.60;99.90;;;;;;4154522;28;20037;-67
2021/04/11 02:51:53;;;;;;;5.15;3.47;;;6.60;99.90;;;;;;4158122;28;20195;-67
2021/04/11 02:53:57;;;;;;;3.53;3.10;;;6.50;99.90;;;;;;4171023;28;20075;-67
2021/04/11 02:55:59;;;;;;;4.20;3.50;;;6.50;99.90;;;;;;4157196;28;20138;-67
2021/04/11 02:58:00;;;;;;;3.25;2.80;;;6.50;99.90;;;;;;4157180;28;20667;-67
2021/04/11 03:00:04;;;;;;;5.28;3.33;;;6.50;99.90;;;;;;4155503;28;20096;-67
2021/04/11 03:02:05;;;;;;;3.47;2.58;;;6.40;99.90;;;;;;4157167;28;20033;-67
2021/04/11 03:04:06;;;;;;;3.15;2.70;;;6.30;99.90;;;;;;4161727;28;20030;-67
2021/04/11 03:06:18;;;;;;;5.13;3.10;;;6.30;99.90;;;;;;4160958;28;20042;-67
2021/04/11 03:08:23;;;;;;;3.33;3.00;;;6.20;99.90;;;;;;4158452;28;20052;-67
2021/04/11 03:10:25;;;;;;;3.10;2.78;;;6.20;99.90;;;;;;4159641;28;20076;-67
2021/04/11 03:12:26;;;;;;;4.35;2.90;;;6.20;99.90;;;;;;4159831;28;20641;-67
2021/04/11 03:14:33;;;;;;;3.65;2.95;;;6.20;99.90;;;;;;4157743;28;20029;-67
2021/04/11 03:16:35;;;;;;;4.55;2.63;;;6.10;99.90;;;;;;4155867;28;20041;-67
2021/04/11 03:18:36;;;;;;;3.75;2.75;;;6.10;99.90;;;;;;4161208;28;20042;-67
2021/04/11 03:20:39;;;;;;;4.27;2.80;;;6.10;99.90;;;;;;4182606;28;20032;-67
2021/04/11 03:22:41;;;;;;;4.03;2.80;;;6.10;99.90;;;;;;4189197;28;20097;-67
2021/04/11 03:24:41;;;;;;;4.05;2.30;;;6.10;99.90;;;;;;4158893;28;20033;-67
2021/04/11 03:27:04;;;;;;;3.42;2.80;;;6.10;99.90;;;;;;4159906;28;20072;-67
2021/04/11 03:29:27;;;;;;;3.27;2.77;;;6.10;99.90;;;;;;4160871;28;20060;-67
2021/04/11 03:31:33;;;;;;;3.95;2.75;;;6.00;99.90;;;;;;4159046;28;20165;-67
2021/04/11 03:33:45;;;;;;;3.08;2.10;;;6.00;99.90;;;;;;4154585;28;20030;-67
2021/04/11 03:35:48;;;;;;;4.22;2.38;;;6.00;99.90;;;;;;4156500;28;20050;-67
2021/04/11 03:37:51;;;;;;;3.20;2.40;;;5.90;99.90;;;;;;4161369;28;20091;-67
2021/04/11 03:39:52;;;;;;;2.90;2.25;;;5.90;99.90;;;;;;4167954;28;20040;-67
2021/04/11 03:41:53;;;;;;;3.50;2.30;;;5.80;99.90;;;;;;4157952;28;20049;-67
2021/04/11 03:43:57;;;;;;;2.58;2.28;;;5.90;99.90;;;;;;4157542;28;20632;-67
2021/04/11 03:46:03;;;;;;;4.45;2.47;;;5.90;99.90;;;;;;4159545;28;20072;-67
2021/04/11 03:48:24;;;;;;;3.17;2.58;;;5.80;99.90;;;;;;4158317;28;20065;-67
2021/04/11 03:50:28;;;;;;;3.20;2.30;;;5.80;99.90;;;;;;4160638;28;20099;-67
2021/04/11 03:52:34;;;;;;;2.72;2.35;;;5.70;99.90;;;;;;4170463;28;20172;-67
2021/04/11 03:54:38;;;;;;;3.08;2.42;;;5.70;99.90;;;;;;4152055;28;20494;-67
2021/04/11 03:56:46;;;;;;;3.75;2.88;;;5.70;99.90;;;;;;4158955;28;20034;-67
2021/04/11 03:58:53;;;;;;;3.53;2.60;;;5.70;99.90;;;;;;4158743;28;20037;-67
2021/04/11 04:00:58;;;;;;;3.10;2.60;;;5.70;99.90;;;;;;4158678;28;20049;-67
2021/04/11 04:03:06;;;;;;;6.40;3.50;;;5.80;99.90;;;;;;4159588;28;20225;-67
2021/04/11 04:05:10;;;;;;;4.72;3.47;;;5.70;99.90;;;;;;4158109;28;20036;-67
2021/04/11 04:07:20;;;;;;;3.80;3.17;;;5.70;99.90;;;;;;4156352;28;20029;-67
2021/04/11 04:09:21;;;;;;;4.55;3.58;;;5.70;99.90;;;;;;4156238;28;20091;-67
2021/04/11 04:11:27;;;;;;;5.70;4.18;;;5.80;99.90;;;;;;4157314;28;20488;-67
2021/04/11 04:13:44;;;;;;;6.50;4.30;;;5.80;99.90;;;;;;4155201;28;20045;-67
2021/04/11 04:16:03;;;;;;;5.25;3.95;;;5.70;99.90;;;;;;4154054;28;20057;-67
2021/04/11 04:18:26;;;;;;;5.72;4.65;;;5.60;99.90;;;;;;4154893;28;20054;-67
2021/04/11 04:20:44;;;;;;;7.72;4.93;;;5.60;99.90;;;;;;4159726;28;21502;-67
2021/04/11 04:23:02;;;;;;;7.38;5.00;;;5.60;99.90;;;;;;4158351;28;20037;-67
2021/04/11 04:25:09;;;;;;;8.52;6.03;;;5.60;99.90;;;;;;4158212;28;20532;-67
2021/04/11 04:27:25;;;;;;;7.65;6.32;;;5.50;99.90;;;;;;4154601;28;20073;-67
2021/04/11 04:29:40;;;;;;;9.65;6.68;;;5.50;99.90;;;;;;4157449;28;20032;-67
2021/04/11 04:32:04;;;;;;;7.78;5.88;;;5.50;99.90;;;;;;4196557;28;20039;-67
2021/04/11 04:34:36;;;;;;;;;;;5.50;99.90;;;;;;4158501;28;20044;-67
2021/04/11 04:37:06;;;;;;;9.82;6.82;;;5.50;99.90;;;;;;4131942;28;19913;-67
2021/04/11 04:39:22;;;;;;;9.90;6.40;;;5.50;99.90;;;;;;4148983;28;20184;-67
2021/04/11 04:41:43;;;;;;;10.25;6.68;;;5.50;99.90;;;;;;4153973;28;20045;-67
2021/04/11 04:44:11;;;;;;;10.27;7.18;;;5.50;99.90;;;;;;4156197;28;20079;-67
2021/04/11 04:46:27;;;;;;;10.13;6.75;;;5.50;99.90;;;;;;4158989;28;20057;-67
2021/04/11 04:48:33;;;;;;;11.48;7.57;;;5.50;99.90;;;;;;4156217;28;20059;-67
2021/04/11 04:50:39;;;;;;;13.77;7.63;;;5.40;99.90;;;;;;4157454;28;20075;-67
2021/04/11 04:52:44;;;;;;;9.40;6.80;;;5.50;99.90;;;;;;4157288;28;20056;-67
2021/04/11 04:54:55;;;;;;;10.10;7.18;;;5.40;99.90;;;;;;4171839;28;20052;-67
2021/04/11 04:57:07;;;;;;;11.60;7.45;;;5.30;99.90;;;;;;4159132;28;20135;-67
2021/04/11 04:59:14;;;;;;;10.93;7.40;;;5.30;99.90;;;;;;4159342;28;20068;-67
2021/04/11 05:01:26;;;;;;;13.25;7.38;;;5.30;99.90;;;;;;4158242;28;20041;-67
2021/04/11 05:03:35;;;;;;;12.98;7.32;;;5.30;99.90;;;;;;4170436;28;20079;-67
2021/04/11 05:05:52;;;;;;;10.60;6.78;;;5.30;99.90;;;;;;4156965;28;20022;-67
2021/04/11 05:08:05;;;;;;;13.77;7.45;;;5.30;99.90;;;;;;4159354;28;20049;-67
2021/04/11 05:10:13;;;;;;;13.88;8.30;;;5.40;99.90;;;;;;4158705;28;20035;-67
2021/04/11 05:12:20;;;;;;;10.63;6.97;;;5.30;99.90;;;;;;4159651;28;20091;-67
2021/04/11 05:14:25;;;;;;;12.50;7.32;;;5.40;99.90;;;;;;4156480;28;20061;-67
2021/04/11 05:16:34;;;;;;;12.40;7.25;;;5.40;99.90;;;;;;4159559;28;20026;-67
2021/04/11 05:19:06;;;;;;;11.27;7.10;;;5.40;99.90;;;;;;4156221;28;20073;-67
2021/04/11 05:21:13;;;;;;;11.57;7.10;;;5.40;99.90;;;;;;4159124;28;20038;-67
2021/04/11 05:23:26;;;;;;;10.32;7.28;;;5.40;99.90;;;;;;4147784;28;20037;-67
2021/04/11 05:25:45;;;;;;;14.55;7.13;;;5.40;99.90;;;;;;4158946;28;20037;-67
2021/04/11 05:28:13;;;;;;;12.68;8.20;;;5.40;99.90;;;;;;4157738;28;20071;-67
2021/04/11 05:30:25;;;;;;;15.15;8.35;;;5.40;99.90;;;;;;4159139;28;20030;-67
2021/04/11 05:32:26;;;;;;;11.13;7.20;;;5.30;99.90;;;;;;4182647;28;20033;-67
2021/04/11 05:34:28;;;;;;;13.38;9.13;;;5.40;99.90;;;;;;4173450;28;20086;-67
2021/04/11 05:36:47;;;;;;;;;;;5.40;99.90;;;;;;4134364;28;20038;-67
2021/04/11 05:39:03;;;;;;;13.70;8.27;;;5.40;99.90;;;;;;4156504;28;19913;-67
2021/04/11 05:41:11;;;;;;;12.15;7.53;;;5.40;99.90;;;;;;4158980;28;20068;-67
2021/04/11 05:43:37;;;;;;;14.60;7.40;;;5.40;99.90;;;;;;4164473;28;20053;-67
2021/04/11 05:45:49;;;;;;;10.55;7.40;;;5.40;99.90;;;;;;4166724;28;20427;-67
2021/04/11 05:48:28;;;;;;;10.48;6.30;;;5.40;99.90;;;;;;4170118;28;20041;-67
2021/04/11 05:50:42;;;;;;;10.52;6.95;;;5.40;99.90;;;;;;4165559;28;20639;-67
2021/04/11 05:52:48;;;;;;;12.00;7.57;;;5.40;99.90;;;;;;4169631;28;20548;-67
2021/04/11 05:54:53;;;;;;;10.98;7.18;;;5.40;99.90;;;;;;4171708;28;20049;-67
2021/04/11 05:57:00;;;;;;;11.50;6.68;;;5.40;99.90;;;;;;4161882;28;20070;-67
2021/04/11 05:59:04;;;;;;;11.23;7.15;;;5.40;99.90;;;;;;4164418;28;20121;-67
2021/04/11 06:01:13;;;;;;;9.50;7.03;;;5.40;99.90;;;;;;4166316;28;20037;-67
2021/04/11 06:03:18;;;;;;;11.98;6.60;;;5.50;99.90;;;;;;4163548;28;20045;-67
2021/04/11 06:05:27;;;;;;;12.25;7.13;;;5.50;99.90;;;;;;4169202;28;20037;-67
2021/04/11 06:07:35;;;;;;;13.25;7.47;;;5.50;99.90;;;;;;4172512;28;20115;-67
2021/04/11 06:09:47;;;;;;;10.75;7.03;;;5.50;99.90;;;;;;4178383;28;20031;-67
2021/04/11 06:12:12;;;;;;;11.40;6.72;;;5.60;99.90;;;;;;4161585;28;20033;-67
2021/04/11 06:14:23;;;;;;;8.98;5.72;;;5.50;99.90;;;;;;4158631;28;20464;-67
2021/04/11 06:16:27;;;;;;;8.07;5.97;;;5.50;99.90;;;;;;4163278;28;20846;-67
2021/04/11 06:18:28;;;;;;;8.77;6.18;;;5.50;99.90;;;;;;4165257;28;20041;-67
2021/04/11 06:20:29;;;;;;;8.85;6.35;;;5.40;99.90;;;;;;4165406;28;20025;-67
2021/04/11 06:22:38;;;;;;;8.43;5.40;;;5.50;99.90;;;;;;4163256;28;20535;-67
2021/04/11 06:24:46;;;;;;;9.27;4.95;;;5.50;99.90;;;;;;4169144;28;20033;-67
2021/04/11 06:26:54;;;;;;;8.50;5.47;;;5.50;99.90;;;;;;4159420;28;20426;-67
2021/04/11 06:29:01;;;;;;;7.47;4.28;;;5.50;99.90;;;;;;4165353;28;20033;-67
2021/04/11 06:31:10;;;;;;;7.05;4.38;;;5.50;99.90;;;;;;4167617;28;20376;-67
2021/04/11 06:33:20;;;;;;;5.47;4.03;;;5.50;99.90;;;;;;4158931;28;20033;-67
2021/04/11 06:35:27;;;;;;;6.20;3.53;;;5.50;99.90;;;;;;4164545;28;20372;-67
2021/04/11 06:37:31;;;;;;;6.78;3.75;;;5.50;99.90;;;;;;4160086;28;20493;-67
2021/04/11 06:39:35;;;;;;;4.40;3.35;;;5.50;99.90;;;;;;4166725;28;20044;-67
2021/04/11 06:42:00;;;;;;;5.38;3.65;;;5.50;99.90;;;;;;4179420;28;20716;-67
2021/04/11 06:44:19;;;;;;;5.20;3.38;;;5.50;99.90;;;;;;4172401;28;20850;-67
2021/04/11 06:46:45;;;;;;;4.85;3.13;;;5.50;99.90;;;;;;4164178;28;20417;-67
2021/04/11 06:49:01;;;;;;;5.28;3.35;;;5.50;99.90;;;;;;4175683;28;20037;-67
2021/04/11 06:51:12;;;;;;;4.80;3.63;;;5.50;99.90;;;;;;4161128;28;20029;-67
2021/04/11 06:53:18;;;;;;;5.25;3.20;;;5.50;99.90;;;;;;4161200;28;20068;-67
2021/04/11 06:55:41;;;;;;;5.50;2.80;;;5.50;99.90;;;;;;4165219;28;20112;-67
2021/04/11 06:58:03;;;;;;;5.25;2.85;;;5.60;99.90;;;;;;4163779;28;20037;-67
2021/04/11 07:00:36;;;;;;;4.18;2.90;;;5.60;99.90;;;;;;4171006;28;20029;-67
2021/04/11 07:02:58;;;;;;;4.03;2.80;;;5.60;99.90;;;;;;4143607;28;20037;-67
2021/04/11 07:05:26;;;;;;;3.60;2.72;;;5.60;99.90;;;;;;4170209;28;20040;-67
2021/04/11 07:07:58;;;;;;;4.25;2.40;;;5.60;99.90;;;;;;4165593;28;20041;-67
2021/04/11 07:10:32;;;;;;;2.95;2.40;;;5.70;99.90;;;;;;4166945;28;20025;-67
2021/04/11 07:12:51;;;;;;;5.45;2.45;;;5.70;99.90;;;;;;4162702;28;20120;-67
2021/04/11 07:15:14;;;;;;;3.45;2.33;;;5.70;99.90;;;;;;4165985;28;20048;-67
2021/04/11 07:17:36;;;;;;;3.35;2.55;;;5.70;99.90;;;;;;4162768;28;20025;-67
2021/04/11 07:20:15;;;;;;;3.65;2.00;;;5.70;99.90;;;;;;4170834;28;20422;-67
2021/04/11 07:22:34;;;;;;;2.45;2.13;;;5.70;99.90;;;;;;4143295;28;20033;-68
2021/04/11 07:24:56;;;;;;;4.30;2.20;;;5.70;99.90;;;;;;4163667;28;20063;-68
2021/04/11 07:27:27;;;;;;;4.13;2.22;;;5.70;99.90;;;;;;4163727;28;20540;-67
2021/04/11 07:29:39;;;;;;;2.33;2.13;;;5.70;99.90;;;;;;4161471;28;20549;-68
2021/04/11 07:32:01;;;;;;;2.17;1.97;;;5.80;99.90;;;;;;4159253;28;20034;-68
2021/04/11 07:34:05;;;;;;;4.25;2.25;;;5.80;99.90;;;;;;4186764;28;20055;-68
2021/04/11 07:36:17;;;;;;;2.10;1.90;;;5.80;99.90;;;;;;4161962;28;20132;-68
2021/04/11 07:38:34;;;;;;;2.17;1.98;;;5.80;99.90;;;;;;4162546;28;20105;-69
2021/04/11 07:40:44;;;;;;;2.15;1.92;;;5.80;99.90;;;;;;4158660;28;20037;-69
2021/04/11 07:43:04;;;;;;;4.53;1.65;;;5.80;99.90;;;;;;4156914;28;20045;-68
2021/04/11 07:45:13;;;;;;;2.20;1.88;;;5.80;99.90;;;;;;4155015;28;20172;-69
2021/04/11 07:47:37;;;;;;;3.00;2.10;;;5.90;99.90;;;;;;4159901;28;20069;-69
2021/04/11 07:50:04;;;;;;;8.50;2.17;;;5.90;99.90;;;;;;4162125;28;20033;-68
2021/04/11 07:52:18;;;;;;;2.47;1.92;;;5.90;99.90;;;;;;4160108;28;20034;-69
2021/04/11 07:54:42;;;;;;;2.85;2.30;;;5.90;99.90;;;;;;4181124;28;20635;-69
2021/04/11 07:57:11;;;;;;;2.72;1.85;;;5.90;99.90;;;;;;4162080;28;20040;-68
2021/04/11 07:59:39;;;;;;;3.45;1.92;;;5.90;99.90;;;;;;4163016;28;20048;-68
2021/04/11 08:02:02;;;;;;;2.45;1.70;;;5.90;99.90;;;;;;4160994;28;20047;-68
2021/04/11 08:04:27;;;;;;;3.00;2.03;;;5.80;99.90;;;;;;4164519;28;20125;-68
2021/04/11 08:06:30;;;;;;;2.33;1.50;;;5.80;99.90;;;;;;4162392;28;20044;-68
2021/04/11 08:08:55;;;;;;;2.50;2.00;;;5.80;99.90;;;;;;4161698;28;20033;-68
2021/04/11 08:11:33;;;;;;;3.55;1.83;;;5.80;99.90;;;;;;4160022;28;20029;-68
2021/04/11 08:13:54;;;;;;;3.13;1.90;;;5.70;99.90;;;;;;4160281;28;20055;-66
2021/04/11 08:16:09;;;;;;;2.03;1.50;;;5.80;99.90;;;;;;4144985;28;20041;-66
2021/04/11 08:18:16;;;;;;;3.85;2.15;;;5.80;99.90;;;;;;4163027;28;20489;-66
2021/04/11 08:20:53;;;;;;;2.67;1.85;;;5.80;99.90;;;;;;4160284;28;20079;-66
2021/04/11 08:23:22;;;;;;;2.00;1.60;;;5.80;99.90;;;;;;4158383;28;20052;-66
2021/04/11 08:25:55;;;;;;;3.35;1.88;;;5.80;99.90;;;;;;4159551;28;20069;-66
2021/04/11 08:28:26;;;;;;;2.03;1.60;;;5.80;99.90;;;;;;4156939;28;20097;-66
2021/04/11 08:30:39;;;;;;;1.52;1.42;;;5.90;99.90;;;;;;4155881;28;20064;-66
2021/04/11 08:32:52;;;;;;;3.17;1.40;;;5.80;99.90;;;;;;4157839;28;20037;-66
2021/04/11 08:35:04;;;;;;;2.50;1.50;;;5.80;99.90;;;;;;4158463;28;20057;-66
2021/04/11 08:37:23;;;;;;;4.05;1.58;;;5.90;99.90;;;;;;4158604;28;20057;-66
2021/04/11 08:39:32;;;;;;;1.73;1.20;;;5.90;99.90;;;;;;4152679;28;20030;-66
2021/04/11 08:41:42;;;;;;;3.00;1.90;;;5.90;99.90;;;;;;4155712;28;20041;-66
2021/04/11 08:44:01;;;;;;;1.38;1.23;;;5.90;99.90;;;;;;4193194;28;20131;-66
2021/04/11 08:46:31;;;;;;;2.50;1.30;;;5.90;99.90;;;;;;4165977;28;20059;-66
2021/04/11 08:48:55;;;;;;;1.67;1.20;;;5.90;99.90;;;;;;4166214;28;20109;-66
2021/04/11 08:51:20;;;;;;;1.38;1.15;;;6.00;99.90;;;;;;4166731;28;20032;-66
2021/04/11 08:53:41;;;;;;;1.25;1.15;;;5.90;99.90;;;;;;4192690;28;20025;-67
2021/04/11 08:56:05;;;;;;;1.08;1.00;;;5.90;99.90;;;;;;4161200;28;20097;-66
2021/04/11 08:58:17;;;;;;;1.05;0.95;;;5.90;99.90;;;;;;4171309;28;20078;-66
2021/04/11 09:00:21;;;;;;;1.65;1.05;;;5.90;99.90;;;;;;4160158;28;20041;-66
2021/04/11 09:02:46;;;;;;;2.45;1.23;;;5.80;99.90;;;;;;4174803;28;20029;-67
2021/04/11 09:05:05;;;;;;;1.35;1.17;;;5.90;99.90;;;;;;4160175;28;20025;-67
2021/04/11 09:07:43;;;;;;;3.00;1.17;;;5.80;99.90;;;;;;4166372;28;20042;-66
2021/04/11 09:10:01;;;;;;;0.73;0.73;;;5.90;99.90;;;;;;4167554;28;20123;-66
2021/04/11 09:12:14;;;;;;;1.17;1.05;;;5.80;99.90;;;;;;4168930;28;20028;-66
2021/04/11 09:14:53;;;;;;;0.70;0.70;;;5.90;99.90;;;;;;4157401;28;20039;-67
2021/04/11 09:17:17;;;;;;;0.80;0.80;;;5.90;99.90;;;;;;4138247;28;20161;-66
2021/04/11 09:19:46;;;;;;;0.70;0.68;;;6.00;99.90;;;;;;4183223;28;20037;-66
2021/04/11 09:21:52;;;;;;;1.63;0.90;;;6.00;99.90;;;;;;4154797;28;20036;-66
2021/04/11 09:24:22;;;;;;;0.75;0.75;;;6.00;99.90;;;;;;4158538;28;20105;-66
2021/04/11 09:26:47;;;;;;;1.10;0.73;;;6.00;99.90;;;;;;4164021;28;20026;-67
2021/04/11 09:29:10;;;;;;;1.05;0.70;;;6.10;99.90;;;;;;4161455;28;20504;-66
2021/04/11 09:31:29;;;;;;;0.63;0.63;;;6.10;99.90;;;;;;4159227;28;20370;-66
2021/04/11 09:34:03;;;;;;;0.80;0.77;;;6.10;99.90;;;;;;4171658;28;20033;-67
2021/04/11 09:36:09;;;;;;;1.25;0.85;;;6.20;99.90;;;;;;4164404;28;20083;-66
2021/04/11 09:38:28;;;;;;;0.70;0.70;;;6.20;99.90;;;;;;4161877;28;20037;-66
2021/04/11 09:41:08;;;;;;;1.40;0.80;;;6.30;99.90;;;;;;4192948;28;20048;-66
2021/04/11 09:43:33;;;;;;;0.65;0.55;;;6.30;99.90;;;;;;4164626;28;20551;-66
2021/04/11 09:46:21;;;;;;;0.80;0.70;;;6.30;99.90;;;;;;4155851;28;20128;-67
2021/04/11 09:48:27;;;;;;;1.10;0.80;;;6.30;99.90;;;;;;4160610;28;20611;-66
2021/04/11 09:50:53;;;;;;;0.85;0.70;;;6.30;99.90;;;;;;4181965;28;20089;-66
2021/04/11 09:53:09;;;;;;;1.25;0.70;;;6.30;99.90;;;;;;4163464;28;20033;-67
2021/04/11 09:55:30;;;;;;;1.42;0.85;;;6.30;99.90;;;;;;4168203;28;20386;-66
2021/04/11 09:58:00;;;;;;;1.98;0.82;;;6.20;99.90;;;;;;4158088;28;20037;-66
2021/04/11 10:00:11;;;;;;;2.03;0.85;;;6.20;99.90;;;;;;4153134;28;20029;-66
2021/04/11 10:02:24;;;;;;;0.80;0.80;;;6.20;99.90;;;;;;4174821;28;20521;-67
2021/04/11 10:05:02;;;;;;;3.63;0.80;;;6.20;99.90;;;;;;4182986;28;20036;-67
2021/04/11 10:07:33;;;;;;;1.83;0.85;;;6.20;99.90;;;;;;4158686;28;20041;-66
2021/04/11 10:09:36;;;;;;;1.42;0.90;;;6.20;99.90;;;;;;4161117;28;20124;-66
2021/04/11 10:12:07;;;;;;;1.10;0.88;;;6.20;99.90;;;;;;4161862;28;20041;-66
2021/04/11 10:14:23;;;;;;;1.23;0.85;;;6.30;99.90;;;;;;4166006;28;20033;-66
2021/04/11 10:16:46;;;;;;;1.73;0.80;;;6.30;99.90;;;;;;4177604;28;20023;-66
2021/04/11 10:19:08;;;;;;;;;;;6.30;99.90;;;;;;4173061;28;20130;-67
2021/04/11 10:21:23;;;;;;;2.25;1.00;;;6.30;99.90;;;;;;4160385;28;19917;-67
2021/04/11 10:23:43;;;;;;;1.23;0.95;;;6.30;99.90;;;;;;4153377;28;20033;-67
2021/04/11 10:25:52;;;;;;;0.50;0.50;;;6.30;99.90;;;;;;4146020;28;20070;-67
2021/04/11 10:28:29;;;;;;;2.78;1.38;;;6.30;99.90;;;;;;4164211;28;20099;-67
2021/04/11 10:30:32;;;;;;;1.95;0.95;;;6.40;99.90;;;;;;4166605;28;20029;-67
2021/04/11 10:33:01;;;;;;;2.35;0.95;;;6.40;99.90;;;;;;4161982;28;20235;-67
2021/04/11 10:35:13;;;;;;;1.60;1.10;;;6.30;99.90;;;;;;4163618;28;20604;-67
2021/04/11 10:37:30;;;;;;;2.80;1.10;;;6.40;99.90;;;;;;4162794;28;20036;-67
2021/04/11 10:40:03;;;;;;;1.55;1.00;;;6.40;99.90;;;;;;4166299;28;20127;-67
2021/04/11 10:42:32;;;;;;;2.22;1.23;;;6.40;99.90;;;;;;4162908;28;20029;-66
2021/04/11 10:44:54;;;;;;;1.38;1.20;;;6.50;99.90;;;;;;4141736;28;20517;-67
2021/04/11 10:47:13;;;;;;;2.08;1.40;;;6.50;99.90;;;;;;4166842;28;20092;-67
2021/04/11 10:49:40;;;;;;;2.08;1.52;;;6.50;99.90;;;;;;4165638;28;20061;-67
2021/04/11 10:51:53;;;;;;;6.80;2.95;;;6.50;99.90;;;;;;4185047;28;20033;-67
2021/04/11 10:53:56;;;;;;;;;;;6.50;99.90;;;;;;4184696;28;20053;-67
2021/04/11 10:56:16;;;;;;;;;;;6.50;99.90;;;;;;4163346;28;19917;-66
2021/04/11 10:58:16;;;;;;;6.22;1.95;;;6.50;99.90;;;;;;4162276;28;19909;-67
2021/04/11 11:00:40;;;;;;;5.40;2.35;;;6.50;99.90;;;;;;4164797;28;20072;-66
2021/04/11 11:02:58;;;;;;;3.28;1.88;;;6.50;99.90;;;;;;4168988;28;20025;-66
2021/04/11 11:05:36;;;;;;;3.00;1.80;;;6.50;99.90;;;;;;4170703;28;20036;-66
2021/04/11 11:08:14;;;;;;;5.80;1.98;;;6.50;99.90;;;;;;4167245;28;20562;-66
2021/04/11 11:10:34;;;;;;;2.80;1.58;;;6.50;99.90;;;;;;4167794;28;20048;-66
2021/04/11 11:13:01;;;;;;;5.00;1.65;;;6.60;99.90;;;;;;4161578;28;20090;-67
2021/04/11 11:15:14;;;;;;;2.90;1.80;;;6.60;99.90;;;;;;4165038;28;20029;-67
2021/04/11 11:17:23;;;;;;;;;;;6.60;99.90;;;;;;4162911;28;20110;-66
2021/04/11 11:19:35;;;;;;;2.42;1.52;;;6.60;99.90;;;;;;4165936;28;19986;-67
2021/04/11 11:21:57;;;;;;;2.67;1.80;;;6.60;99.90;;;;;;4188960;28;20031;-67
2021/04/11 11:24:16;;;;;;;3.13;1.50;;;6.60;99.90;;;;;;4173389;28;20252;-66
2021/04/11 11:26:56;;;;;;;2.63;2.00;;;6.70;99.90;;;;;;4175375;28;20029;-67
2021/04/11 11:29:16;;;;;;;6.60;2.30;;;6.70;99.90;;;;;;4188403;28;20440;-67
2021/04/11 11:31:54;;;;;;;4.03;1.55;;;6.70;99.90;;;;;;4160765;28;20034;-67
2021/04/11 11:34:06;;;;;;;2.17;1.25;;;6.80;99.90;;;;;;4159659;28;20037;-67
2021/04/11 11:36:34;;;;;;;4.65;1.70;;;6.70;99.90;;;;;;4178997;28;20405;-67
2021/04/11 11:38:49;;;;;;;4.10;1.70;;;6.80;99.90;;;;;;4190041;28;20043;-67